sensor_id;sensor_type;location;lat;lon;timestamp;temperature;humidity
11083;DHT22;5595;50.186;8.468;2023-07-29T00:01:54;18.70;99.90
11083;DHT22;5595;50.186;8.468;2023-07-29T00:04:21;18.60;99.90
11083;DHT22;5595;50.186;8.468;2023-07-29T00:06:47;18.70;99.90
11083;DHT22;5595;50.186;8.468;2023-07-29T00:09:14;18.70;99.90
11083;DHT22;5595;50.186;8.468;2023-07-29T00:11:41;18.70;99.90
11083;DHT22;5595;50.186;8.468;2023-07-29T00:14:08;18.70;99.90
11083;DHT22;5595;50.186;8.468;2023-07-29T00:16:36;18.60;99.90
11083;DHT22;5595;50.186;8.468;2023-07-29T00:19:03;18.60;99.90
11083;DHT22;5595;50.186;8.468;2023-07-29T00:21:30;18.60;99.90
11083;DHT22;5595;50.186;8.468;2023-07-29T00:23:56;18.70;99.90
11083;DHT22;5595;50.186;8.468;2023-07-29T00:26:24;18.70;99.90
11083;DHT22;5595;50.186;8.468;2023-07-29T00:28:51;18.70;99.90
11083;DHT22;5595;50.186;8.468;2023-07-29T00:31:18;18.70;99.90
11083;DHT22;5595;50.186;8.468;2023-07-29T00:33:48;18.70;99.90
11083;DHT22;5595;50.186;8.468;2023-07-29T00:36:15;18.80;99.90
11083;DHT22;5595;50.186;8.468;2023-07-29T00:38:42;18.70;99.90
11083;DHT22;5595;50.186;8.468;2023-07-29T00:41:08;18.80;99.90
11083;DHT22;5595;50.186;8.468;2023-07-29T00:43:38;18.70;99.90
11083;DHT22;5595;50.186;8.468;2023-07-29T00:46:05;18.80;99.90
11083;DHT22;5595;50.186;8.468;2023-07-29T00:48:33;18.70;99.90
11083;DHT22;5595;50.186;8.468;2023-07-29T00:51:01;18.70;99.90
11083;DHT22;5595;50.186;8.468;2023-07-29T00:53:28;18.70;99.90
11083;DHT22;5595;50.186;8.468;2023-07-29T00:55:55;18.70;99.90
11083;DHT22;5595;50.186;8.468;2023-07-29T00:58:22;18.70;99.90
11083;DHT22;5595;50.186;8.468;2023-07-29T01:00:49;18.70;99.90
11083;DHT22;5595;50.186;8.468;2023-07-29T01:03:17;18.70;99.90
11083;DHT22;5595;50.186;8.468;2023-07-29T01:05:55;18.70;99.90
11083;DHT22;5595;50.186;8.468;2023-07-29T01:08:36;18.70;99.90
11083;DHT22;5595;50.186;8.468;2023-07-29T01:11:25;18.70;99.90
11083;DHT22;5595;50.186;8.468;2023-07-29T01:13:59;18.70;99.90
11083;DHT22;5595;50.186;8.468;2023-07-29T01:16:31;18.70;99.90
11083;DHT22;5595;50.186;8.468;2023-07-29T01:19:05;18.60;99.90
11083;DHT22;5595;50.186;8.468;2023-07-29T01:21:36;18.60;99.90
11083;DHT22;5595;50.186;8.468;2023-07-29T01:24:07;18.60;99.90
11083;DHT22;5595;50.186;8.468;2023-07-29T01:26:34;18.60;99.90
11083;DHT22;5595;50.186;8.468;2023-07-29T01:29:01;18.60;99.90
11083;DHT22;5595;50.186;8.468;2023-07-29T01:31:33;18.60;99.90
11083;DHT22;5595;50.186;8.468;2023-07-29T01:34:06;18.70;99.90
11083;DHT22;5595;50.186;8.468;2023-07-29T01:36:37;18.60;99.90
11083;DHT22;5595;50.186;8.468;2023-07-29T01:39:09;18.60;99.90
11083;DHT22;5595;50.186;8.468;2023-07-29T01:41:37;18.60;99.90
11083;DHT22;5595;50.186;8.468;2023-07-29T01:44:05;18.60;99.90
11083;DHT22;5595;50.186;8.468;2023-07-29T01:46:33;18.60;99.90
11083;DHT22;5595;50.186;8.468;2023-07-29T01:49:00;18.60;99.90
11083;DHT22;5595;50.186;8.468;2023-07-29T01:51:26;18.60;99.90
11083;DHT22;5595;50.186;8.468;2023-07-29T01:53:53;18.60;99.90
11083;DHT22;5595;50.186;8.468;2023-07-29T01:56:22;18.60;99.90
11083;DHT22;5595;50.186;8.468;2023-07-29T01:58:49;18.60;99.90
11083;DHT22;5595;50.186;8.468;2023-07-29T02:01:15;18.60;99.90
11083;DHT22;5595;50.186;8.468;2023-07-29T02:03:43;18.60;99.90
11083;DHT22;5595;50.186;8.468;2023-07-29T02:06:10;18.50;99.90
11083;DHT22;5595;50.186;8.468;2023-07-29T02:08:38;18.50;99.90
11083;DHT22;5595;50.186;8.468;2023-07-29T02:11:06;18.50;99.90
11083;DHT22;5595;50.186;8.468;2023-07-29T02:13:34;18.40;99.90
11083;DHT22;5595;50.186;8.468;2023-07-29T02:16:01;18.40;99.90
11083;DHT22;5595;50.186;8.468;2023-07-29T02:18:28;18.40;99.90
11083;DHT22;5595;50.186;8.468;2023-07-29T02:20:54;18.40;99.90
11083;DHT22;5595;50.186;8.468;2023-07-29T02:23:21;18.40;99.90
11083;DHT22;5595;50.186;8.468;2023-07-29T02:25:48;18.30;99.90
11083;DHT22;5595;50.186;8.468;2023-07-29T02:28:15;18.40;99.90
11083;DHT22;5595;50.186;8.468;2023-07-29T02:30:43;18.40;99.90
11083;DHT22;5595;50.186;8.468;2023-07-29T02:33:10;18.50;99.90
11083;DHT22;5595;50.186;8.468;2023-07-29T02:35:37;18.40;99.90
11083;DHT22;5595;50.186;8.468;2023-07-29T02:38:04;18.40;99.90
11083;DHT22;5595;50.186;8.468;2023-07-29T02:40:30;18.40;99.90
11083;DHT22;5595;50.186;8.468;2023-07-29T02:42:57;18.40;99.90
11083;DHT22;5595;50.186;8.468;2023-07-29T02:45:24;18.40;99.90
11083;DHT22;5595;50.186;8.468;2023-07-29T02:47:52;18.40;99.90
11083;DHT22;5595;50.186;8.468;2023-07-29T02:50:19;18.40;99.90
11083;DHT22;5595;50.186;8.468;2023-07-29T02:52:46;18.40;99.90
11083;DHT22;5595;50.186;8.468;2023-07-29T02:55:13;18.40;99.90
11083;DHT22;5595;50.186;8.468;2023-07-29T02:57:40;18.40;99.90
11083;DHT22;5595;50.186;8.468;2023-07-29T03:00:08;18.40;99.90
11083;DHT22;5595;50.186;8.468;2023-07-29T03:02:35;18.40;99.90
11083;DHT22;5595;50.186;8.468;2023-07-29T03:05:04;18.40;99.90
11083;DHT22;5595;50.186;8.468;2023-07-29T03:07:31;18.40;99.90
11083;DHT22;5595;50.186;8.468;2023-07-29T03:09:58;18.40;99.90
11083;DHT22;5595;50.186;8.468;2023-07-29T03:12:25;18.40;99.90
11083;DHT22;5595;50.186;8.468;2023-07-29T03:14:52;18.40;99.90
11083;DHT22;5595;50.186;8.468;2023-07-29T03:17:18;18.40;99.90
11083;DHT22;5595;50.186;8.468;2023-07-29T03:19:45;18.50;99.90
11083;DHT22;5595;50.186;8.468;2023-07-29T03:22:13;18.50;99.90
11083;DHT22;5595;50.186;8.468;2023-07-29T03:24:40;18.50;99.90
11083;DHT22;5595;50.186;8.468;2023-07-29T03:27:08;18.50;99.90
11083;DHT22;5595;50.186;8.468;2023-07-29T03:29:35;18.50;99.90
11083;DHT22;5595;50.186;8.468;2023-07-29T03:32:02;18.50;99.90
11083;DHT22;5595;50.186;8.468;2023-07-29T03:34:29;18.50;99.90
11083;DHT22;5595;50.186;8.468;2023-07-29T03:36:57;18.50;99.90
11083;DHT22;5595;50.186;8.468;2023-07-29T03:39:25;18.50;99.90
11083;DHT22;5595;50.186;8.468;2023-07-29T03:41:52;18.50;99.90
11083;DHT22;5595;50.186;8.468;2023-07-29T03:44:19;18.50;99.90
11083;DHT22;5595;50.186;8.468;2023-07-29T03:46:45;18.50;99.90
11083;DHT22;5595;50.186;8.468;2023-07-29T03:49:12;18.50;99.90
11083;DHT22;5595;50.186;8.468;2023-07-29T03:51:39;18.50;99.90
11083;DHT22;5595;50.186;8.468;2023-07-29T03:54:06;18.60;99.90
11083;DHT22;5595;50.186;8.468;2023-07-29T03:56:34;18.50;99.90
11083;DHT22;5595;50.186;8.468;2023-07-29T03:59:05;18.50;99.90
11083;DHT22;5595;50.186;8.468;2023-07-29T04:01:32;18.50;99.90
11083;DHT22;5595;50.186;8.468;2023-07-29T04:03:59;18.50;99.90
11083;DHT22;5595;50.186;8.468;2023-07-29T04:06:26;18.50;99.90
11083;DHT22;5595;50.186;8.468;2023-07-29T04:08:53;18.50;99.90
11083;DHT22;5595;50.186;8.468;2023-07-29T04:11:20;18.50;99.90
11083;DHT22;5595;50.186;8.468;2023-07-29T04:13:48;18.40;99.90
11083;DHT22;5595;50.186;8.468;2023-07-29T04:16:15;18.40;99.90
11083;DHT22;5595;50.186;8.468;2023-07-29T04:18:42;18.40;99.90
11083;DHT22;5595;50.186;8.468;2023-07-29T04:21:09;18.40;99.90
11083;DHT22;5595;50.186;8.468;2023-07-29T04:23:35;18.40;99.90
11083;DHT22;5595;50.186;8.468;2023-07-29T04:26:02;18.30;99.90
11083;DHT22;5595;50.186;8.468;2023-07-29T04:28:29;18.30;99.90
11083;DHT22;5595;50.186;8.468;2023-07-29T04:30:57;18.30;99.90
11083;DHT22;5595;50.186;8.468;2023-07-29T04:33:25;18.40;99.90
11083;DHT22;5595;50.186;8.468;2023-07-29T04:35:52;18.40;99.90
11083;DHT22;5595;50.186;8.468;2023-07-29T04:38:18;18.40;99.90
11083;DHT22;5595;50.186;8.468;2023-07-29T04:40:45;18.40;99.90
11083;DHT22;5595;50.186;8.468;2023-07-29T04:43:12;18.40;99.90
11083;DHT22;5595;50.186;8.468;2023-07-29T04:45:42;18.40;99.90
11083;DHT22;5595;50.186;8.468;2023-07-29T04:48:10;18.50;99.90
11083;DHT22;5595;50.186;8.468;2023-07-29T04:50:37;18.50;99.90
11083;DHT22;5595;50.186;8.468;2023-07-29T04:53:04;18.50;99.90
11083;DHT22;5595;50.186;8.468;2023-07-29T04:55:31;18.50;99.90
11083;DHT22;5595;50.186;8.468;2023-07-29T04:57:58;18.50;99.90
11083;DHT22;5595;50.186;8.468;2023-07-29T05:00:25;18.60;99.90
11083;DHT22;5595;50.186;8.468;2023-07-29T05:02:52;18.60;99.90
11083;DHT22;5595;50.186;8.468;2023-07-29T05:05:20;18.60;99.90
11083;DHT22;5595;50.186;8.468;2023-07-29T05:07:47;18.70;99.90
11083;DHT22;5595;50.186;8.468;2023-07-29T05:10:13;18.70;99.90
11083;DHT22;5595;50.186;8.468;2023-07-29T05:12:40;18.70;99.90
11083;DHT22;5595;50.186;8.468;2023-07-29T05:15:08;18.70;99.90
11083;DHT22;5595;50.186;8.468;2023-07-29T05:17:35;18.70;99.90
11083;DHT22;5595;50.186;8.468;2023-07-29T05:20:02;18.70;99.90
11083;DHT22;5595;50.186;8.468;2023-07-29T05:22:30;18.70;99.90
11083;DHT22;5595;50.186;8.468;2023-07-29T05:24:57;18.70;99.90
11083;DHT22;5595;50.186;8.468;2023-07-29T05:27:23;18.80;99.90
11083;DHT22;5595;50.186;8.468;2023-07-29T05:29:50;18.80;99.90
11083;DHT22;5595;50.186;8.468;2023-07-29T05:32:17;18.90;99.90
11083;DHT22;5595;50.186;8.468;2023-07-29T05:34:44;18.90;99.90
11083;DHT22;5595;50.186;8.468;2023-07-29T05:37:10;18.80;99.90
11083;DHT22;5595;50.186;8.468;2023-07-29T05:39:38;18.90;99.90
11083;DHT22;5595;50.186;8.468;2023-07-29T05:42:06;18.90;99.90
11083;DHT22;5595;50.186;8.468;2023-07-29T05:44:33;19.00;99.90
11083;DHT22;5595;50.186;8.468;2023-07-29T05:47:00;19.00;99.90
11083;DHT22;5595;50.186;8.468;2023-07-29T05:49:29;19.00;99.90
11083;DHT22;5595;50.186;8.468;2023-07-29T05:51:56;19.20;99.90
11083;DHT22;5595;50.186;8.468;2023-07-29T05:54:23;19.30;99.90
11083;DHT22;5595;50.186;8.468;2023-07-29T05:56:51;19.20;99.90
11083;DHT22;5595;50.186;8.468;2023-07-29T05:59:18;19.30;99.90
11083;DHT22;5595;50.186;8.468;2023-07-29T06:01:44;19.30;99.90
11083;DHT22;5595;50.186;8.468;2023-07-29T06:04:10;19.40;99.90
11083;DHT22;5595;50.186;8.468;2023-07-29T06:06:37;19.30;99.90
11083;DHT22;5595;50.186;8.468;2023-07-29T06:09:04;19.20;99.90
11083;DHT22;5595;50.186;8.468;2023-07-29T06:11:30;19.20;99.90
11083;DHT22;5595;50.186;8.468;2023-07-29T06:13:58;19.10;99.90
11083;DHT22;5595;50.186;8.468;2023-07-29T06:16:25;19.10;99.90
11083;DHT22;5595;50.186;8.468;2023-07-29T06:18:52;19.00;99.90
11083;DHT22;5595;50.186;8.468;2023-07-29T06:21:19;19.00;99.90
11083;DHT22;5595;50.186;8.468;2023-07-29T06:23:46;19.00;99.90
11083;DHT22;5595;50.186;8.468;2023-07-29T06:26:12;19.00;99.90
11083;DHT22;5595;50.186;8.468;2023-07-29T06:28:39;19.00;99.90
11083;DHT22;5595;50.186;8.468;2023-07-29T06:31:07;19.00;99.90
11083;DHT22;5595;50.186;8.468;2023-07-29T06:33:34;19.10;99.90
11083;DHT22;5595;50.186;8.468;2023-07-29T06:36:01;19.10;99.90
11083;DHT22;5595;50.186;8.468;2023-07-29T06:38:27;19.10;99.90
11083;DHT22;5595;50.186;8.468;2023-07-29T06:40:54;19.10;99.90
11083;DHT22;5595;50.186;8.468;2023-07-29T06:43:21;19.10;99.90
11083;DHT22;5595;50.186;8.468;2023-07-29T06:45:48;19.10;99.90
11083;DHT22;5595;50.186;8.468;2023-07-29T06:48:16;19.10;99.90
11083;DHT22;5595;50.186;8.468;2023-07-29T06:50:44;19.10;99.90
11083;DHT22;5595;50.186;8.468;2023-07-29T06:53:11;19.00;99.90
11083;DHT22;5595;50.186;8.468;2023-07-29T06:55:37;19.00;99.90
11083;DHT22;5595;50.186;8.468;2023-07-29T06:58:04;18.90;99.90
11083;DHT22;5595;50.186;8.468;2023-07-29T07:00:31;18.90;99.90
11083;DHT22;5595;50.186;8.468;2023-07-29T07:02:58;18.90;99.90
11083;DHT22;5595;50.186;8.468;2023-07-29T07:05:26;18.80;99.90
11083;DHT22;5595;50.186;8.468;2023-07-29T07:07:53;18.80;99.90
11083;DHT22;5595;50.186;8.468;2023-07-29T07:10:19;18.80;99.90
11083;DHT22;5595;50.186;8.468;2023-07-29T07:12:46;18.80;99.90
11083;DHT22;5595;50.186;8.468;2023-07-29T07:15:13;18.80;99.90
11083;DHT22;5595;50.186;8.468;2023-07-29T07:17:40;18.80;99.90
11083;DHT22;5595;50.186;8.468;2023-07-29T07:20:07;18.90;99.90
11083;DHT22;5595;50.186;8.468;2023-07-29T07:22:35;19.00;99.90
11083;DHT22;5595;50.186;8.468;2023-07-29T07:25:03;19.10;99.90
11083;DHT22;5595;50.186;8.468;2023-07-29T07:27:29;19.20;99.90
11083;DHT22;5595;50.186;8.468;2023-07-29T07:29:56;19.20;99.90
11083;DHT22;5595;50.186;8.468;2023-07-29T07:32:23;19.20;99.90
11083;DHT22;5595;50.186;8.468;2023-07-29T07:34:50;19.10;99.90
11083;DHT22;5595;50.186;8.468;2023-07-29T07:37:16;19.20;99.90
11083;DHT22;5595;50.186;8.468;2023-07-29T07:39:45;19.30;99.90
11083;DHT22;5595;50.186;8.468;2023-07-29T07:42:12;19.40;99.90
11083;DHT22;5595;50.186;8.468;2023-07-29T07:44:41;19.40;99.90
11083;DHT22;5595;50.186;8.468;2023-07-29T07:47:08;19.50;99.90
11083;DHT22;5595;50.186;8.468;2023-07-29T07:49:35;19.50;99.90
11083;DHT22;5595;50.186;8.468;2023-07-29T07:52:01;19.60;99.90
11083;DHT22;5595;50.186;8.468;2023-07-29T07:54:28;19.80;99.90
11083;DHT22;5595;50.186;8.468;2023-07-29T07:56:57;19.80;99.90
11083;DHT22;5595;50.186;8.468;2023-07-29T07:59:23;19.80;99.90
11083;DHT22;5595;50.186;8.468;2023-07-29T08:01:50;20.00;99.90
11083;DHT22;5595;50.186;8.468;2023-07-29T08:04:19;20.20;99.90
11083;DHT22;5595;50.186;8.468;2023-07-29T08:06:46;20.40;99.90
11083;DHT22;5595;50.186;8.468;2023-07-29T08:09:13;20.50;99.90
11083;DHT22;5595;50.186;8.468;2023-07-29T08:11:40;20.50;99.90
11083;DHT22;5595;50.186;8.468;2023-07-29T08:14:08;20.50;99.90
11083;DHT22;5595;50.186;8.468;2023-07-29T08:16:35;20.60;99.90
11083;DHT22;5595;50.186;8.468;2023-07-29T08:19:02;20.80;99.90
11083;DHT22;5595;50.186;8.468;2023-07-29T08:21:29;21.20;99.90
11083;DHT22;5595;50.186;8.468;2023-07-29T08:23:55;21.30;99.90
11083;DHT22;5595;50.186;8.468;2023-07-29T08:26:22;21.30;99.90
11083;DHT22;5595;50.186;8.468;2023-07-29T08:28:49;21.30;99.90
11083;DHT22;5595;50.186;8.468;2023-07-29T08:31:17;21.30;99.90
11083;DHT22;5595;50.186;8.468;2023-07-29T08:33:44;21.40;99.90
11083;DHT22;5595;50.186;8.468;2023-07-29T08:36:10;21.70;99.90
11083;DHT22;5595;50.186;8.468;2023-07-29T08:38:37;21.80;99.90
11083;DHT22;5595;50.186;8.468;2023-07-29T08:41:10;21.90;99.90
11083;DHT22;5595;50.186;8.468;2023-07-29T08:43:43;22.10;99.90
11083;DHT22;5595;50.186;8.468;2023-07-29T08:46:12;22.20;99.90
11083;DHT22;5595;50.186;8.468;2023-07-29T08:48:43;22.20;99.90
11083;DHT22;5595;50.186;8.468;2023-07-29T08:51:10;22.20;99.90
11083;DHT22;5595;50.186;8.468;2023-07-29T08:53:38;22.00;99.90
11083;DHT22;5595;50.186;8.468;2023-07-29T08:56:06;22.00;99.90
11083;DHT22;5595;50.186;8.468;2023-07-29T08:58:33;22.30;99.90
11083;DHT22;5595;50.186;8.468;2023-07-29T09:01:01;22.70;99.90
11083;DHT22;5595;50.186;8.468;2023-07-29T09:03:28;22.70;99.90
11083;DHT22;5595;50.186;8.468;2023-07-29T09:05:57;22.60;99.90
11083;DHT22;5595;50.186;8.468;2023-07-29T09:08:25;22.50;99.90
11083;DHT22;5595;50.186;8.468;2023-07-29T09:10:52;22.60;99.90
11083;DHT22;5595;50.186;8.468;2023-07-29T09:13:19;22.60;99.90
11083;DHT22;5595;50.186;8.468;2023-07-29T09:15:47;22.80;99.90
11083;DHT22;5595;50.186;8.468;2023-07-29T09:18:15;23.10;99.90
11083;DHT22;5595;50.186;8.468;2023-07-29T09:20:43;23.50;99.90
11083;DHT22;5595;50.186;8.468;2023-07-29T09:23:11;23.50;99.90
11083;DHT22;5595;50.186;8.468;2023-07-29T09:25:39;23.70;99.90
11083;DHT22;5595;50.186;8.468;2023-07-29T09:28:09;23.90;99.90
11083;DHT22;5595;50.186;8.468;2023-07-29T09:30:37;24.00;99.90
11083;DHT22;5595;50.186;8.468;2023-07-29T09:33:04;24.00;99.90
11083;DHT22;5595;50.186;8.468;2023-07-29T09:35:33;23.90;99.90
11083;DHT22;5595;50.186;8.468;2023-07-29T09:38:00;23.80;99.90
11083;DHT22;5595;50.186;8.468;2023-07-29T09:40:34;23.90;99.90
11083;DHT22;5595;50.186;8.468;2023-07-29T09:43:01;24.00;99.90
11083;DHT22;5595;50.186;8.468;2023-07-29T09:45:28;24.10;99.90
11083;DHT22;5595;50.186;8.468;2023-07-29T09:47:57;24.00;99.90
11083;DHT22;5595;50.186;8.468;2023-07-29T09:50:24;24.30;99.90
11083;DHT22;5595;50.186;8.468;2023-07-29T09:52:52;24.60;99.90
11083;DHT22;5595;50.186;8.468;2023-07-29T09:55:20;24.80;99.90
11083;DHT22;5595;50.186;8.468;2023-07-29T09:57:53;24.90;99.90
11083;DHT22;5595;50.186;8.468;2023-07-29T10:00:20;24.80;99.90
11083;DHT22;5595;50.186;8.468;2023-07-29T10:02:47;24.80;99.90
11083;DHT22;5595;50.186;8.468;2023-07-29T10:05:14;24.90;99.90
11083;DHT22;5595;50.186;8.468;2023-07-29T10:07:41;25.40;99.90
11083;DHT22;5595;50.186;8.468;2023-07-29T10:10:09;25.60;99.90
11083;DHT22;5595;50.186;8.468;2023-07-29T10:12:35;25.50;99.90
11083;DHT22;5595;50.186;8.468;2023-07-29T10:15:05;25.20;99.90
11083;DHT22;5595;50.186;8.468;2023-07-29T10:17:34;24.90;99.90
11083;DHT22;5595;50.186;8.468;2023-07-29T10:20:03;24.80;99.90
11083;DHT22;5595;50.186;8.468;2023-07-29T10:22:34;24.70;99.90
11083;DHT22;5595;50.186;8.468;2023-07-29T10:25:04;24.70;99.90
11083;DHT22;5595;50.186;8.468;2023-07-29T10:27:36;24.60;99.90
11083;DHT22;5595;50.186;8.468;2023-07-29T10:30:09;24.50;99.90
11083;DHT22;5595;50.186;8.468;2023-07-29T10:32:37;24.40;99.90
11083;DHT22;5595;50.186;8.468;2023-07-29T10:35:05;24.50;99.90
11083;DHT22;5595;50.186;8.468;2023-07-29T10:37:33;24.70;99.90
11083;DHT22;5595;50.186;8.468;2023-07-29T10:40:00;24.80;99.90
11083;DHT22;5595;50.186;8.468;2023-07-29T10:42:26;24.90;99.90
11083;DHT22;5595;50.186;8.468;2023-07-29T10:44:53;24.90;99.90
11083;DHT22;5595;50.186;8.468;2023-07-29T10:47:26;25.00;99.90
11083;DHT22;5595;50.186;8.468;2023-07-29T10:49:54;25.30;99.90
11083;DHT22;5595;50.186;8.468;2023-07-29T10:52:30;25.50;99.90
11083;DHT22;5595;50.186;8.468;2023-07-29T10:54:56;25.50;99.90
11083;DHT22;5595;50.186;8.468;2023-07-29T10:57:31;25.20;99.90
11083;DHT22;5595;50.186;8.468;2023-07-29T10:59:59;25.40;99.90
11083;DHT22;5595;50.186;8.468;2023-07-29T11:02:30;25.50;99.90
11083;DHT22;5595;50.186;8.468;2023-07-29T11:04:58;25.50;99.90
11083;DHT22;5595;50.186;8.468;2023-07-29T11:07:25;25.50;99.90
11083;DHT22;5595;50.186;8.468;2023-07-29T11:10:01;25.50;99.90
11083;DHT22;5595;50.186;8.468;2023-07-29T11:12:38;25.60;99.90
11083;DHT22;5595;50.186;8.468;2023-07-29T11:15:13;25.80;99.90
11083;DHT22;5595;50.186;8.468;2023-07-29T11:17:42;25.90;99.90
11083;DHT22;5595;50.186;8.468;2023-07-29T11:20:11;25.90;99.90
11083;DHT22;5595;50.186;8.468;2023-07-29T11:22:38;26.00;99.90
11083;DHT22;5595;50.186;8.468;2023-07-29T11:25:07;26.00;99.90
11083;DHT22;5595;50.186;8.468;2023-07-29T11:27:34;26.00;99.90
11083;DHT22;5595;50.186;8.468;2023-07-29T11:30:03;26.10;99.90
11083;DHT22;5595;50.186;8.468;2023-07-29T11:32:33;26.20;99.90
11083;DHT22;5595;50.186;8.468;2023-07-29T11:35:06;26.20;99.90
11083;DHT22;5595;50.186;8.468;2023-07-29T11:37:33;26.30;99.90
11083;DHT22;5595;50.186;8.468;2023-07-29T11:40:01;26.50;99.90
11083;DHT22;5595;50.186;8.468;2023-07-29T11:42:28;26.30;99.90
11083;DHT22;5595;50.186;8.468;2023-07-29T11:44:58;25.90;99.90
11083;DHT22;5595;50.186;8.468;2023-07-29T11:47:24;25.60;99.90
11083;DHT22;5595;50.186;8.468;2023-07-29T11:49:51;25.30;99.90
11083;DHT22;5595;50.186;8.468;2023-07-29T11:52:20;25.10;99.90
11083;DHT22;5595;50.186;8.468;2023-07-29T11:54:48;25.10;99.90
11083;DHT22;5595;50.186;8.468;2023-07-29T11:57:15;25.10;99.90
11083;DHT22;5595;50.186;8.468;2023-07-29T11:59:44;25.20;99.90
11083;DHT22;5595;50.186;8.468;2023-07-29T12:02:12;25.20;99.90
11083;DHT22;5595;50.186;8.468;2023-07-29T12:04:40;25.10;99.90
11083;DHT22;5595;50.186;8.468;2023-07-29T12:07:08;25.30;99.90
11083;DHT22;5595;50.186;8.468;2023-07-29T12:12:50;25.40;99.90
11083;DHT22;5595;50.186;8.468;2023-07-29T12:15:24;25.40;99.90
11083;DHT22;5595;50.186;8.468;2023-07-29T12:17:54;25.30;99.90
11083;DHT22;5595;50.186;8.468;2023-07-29T12:20:23;25.20;99.90
11083;DHT22;5595;50.186;8.468;2023-07-29T12:22:54;25.10;99.90
11083;DHT22;5595;50.186;8.468;2023-07-29T12:25:21;25.00;99.90
11083;DHT22;5595;50.186;8.468;2023-07-29T12:27:49;24.90;99.90
11083;DHT22;5595;50.186;8.468;2023-07-29T12:30:16;24.90;99.90
11083;DHT22;5595;50.186;8.468;2023-07-29T12:32:46;25.10;99.90
11083;DHT22;5595;50.186;8.468;2023-07-29T12:35:14;25.40;99.90
11083;DHT22;5595;50.186;8.468;2023-07-29T12:37:41;25.50;99.90
11083;DHT22;5595;50.186;8.468;2023-07-29T12:40:20;25.70;99.90
11083;DHT22;5595;50.186;8.468;2023-07-29T12:42:49;25.80;99.90
11083;DHT22;5595;50.186;8.468;2023-07-29T12:45:16;25.80;99.90
11083;DHT22;5595;50.186;8.468;2023-07-29T12:47:43;25.80;99.90
11083;DHT22;5595;50.186;8.468;2023-07-29T12:50:10;25.60;99.90
11083;DHT22;5595;50.186;8.468;2023-07-29T12:52:37;25.40;99.90
11083;DHT22;5595;50.186;8.468;2023-07-29T12:55:05;25.20;99.90
11083;DHT22;5595;50.186;8.468;2023-07-29T12:57:34;25.10;99.90
11083;DHT22;5595;50.186;8.468;2023-07-29T13:00:03;25.10;99.90
11083;DHT22;5595;50.186;8.468;2023-07-29T13:02:31;25.10;99.90
11083;DHT22;5595;50.186;8.468;2023-07-29T13:04:57;25.30;99.90
11083;DHT22;5595;50.186;8.468;2023-07-29T13:07:24;25.50;99.90
11083;DHT22;5595;50.186;8.468;2023-07-29T13:09:51;25.60;99.90
11083;DHT22;5595;50.186;8.468;2023-07-29T13:12:18;25.60;99.90
11083;DHT22;5595;50.186;8.468;2023-07-29T13:14:44;25.60;99.90
11083;DHT22;5595;50.186;8.468;2023-07-29T13:17:13;25.70;99.90
11083;DHT22;5595;50.186;8.468;2023-07-29T13:19:40;25.90;99.90
11083;DHT22;5595;50.186;8.468;2023-07-29T13:22:07;26.10;99.90
11083;DHT22;5595;50.186;8.468;2023-07-29T13:24:34;26.40;99.90
11083;DHT22;5595;50.186;8.468;2023-07-29T13:27:00;26.50;99.90
11083;DHT22;5595;50.186;8.468;2023-07-29T13:29:27;26.60;99.90
11083;DHT22;5595;50.186;8.468;2023-07-29T13:31:54;26.70;99.90
11083;DHT22;5595;50.186;8.468;2023-07-29T13:34:22;26.70;99.90
11083;DHT22;5595;50.186;8.468;2023-07-29T13:36:49;26.70;99.90
11083;DHT22;5595;50.186;8.468;2023-07-29T13:39:16;26.60;99.90
11083;DHT22;5595;50.186;8.468;2023-07-29T13:41:42;26.30;99.90
11083;DHT22;5595;50.186;8.468;2023-07-29T13:44:09;26.00;99.90
11083;DHT22;5595;50.186;8.468;2023-07-29T13:46:37;25.80;99.90
11083;DHT22;5595;50.186;8.468;2023-07-29T13:49:04;25.80;99.90
11083;DHT22;5595;50.186;8.468;2023-07-29T13:51:32;26.00;99.90
11083;DHT22;5595;50.186;8.468;2023-07-29T13:53:58;26.20;99.90
11083;DHT22;5595;50.186;8.468;2023-07-29T13:56:25;26.40;99.90
11083;DHT22;5595;50.186;8.468;2023-07-29T13:58:52;26.40;99.90
11083;DHT22;5595;50.186;8.468;2023-07-29T14:01:19;26.40;99.90
11083;DHT22;5595;50.186;8.468;2023-07-29T14:03:46;26.60;99.90
11083;DHT22;5595;50.186;8.468;2023-07-29T14:06:12;26.70;99.90
11083;DHT22;5595;50.186;8.468;2023-07-29T14:08:40;26.70;99.90
11083;DHT22;5595;50.186;8.468;2023-07-29T14:11:08;26.70;99.90
11083;DHT22;5595;50.186;8.468;2023-07-29T14:13:34;26.70;99.90
11083;DHT22;5595;50.186;8.468;2023-07-29T14:16:01;26.60;99.90
11083;DHT22;5595;50.186;8.468;2023-07-29T14:18:28;26.50;99.90
11083;DHT22;5595;50.186;8.468;2023-07-29T14:20:55;26.40;99.90
11083;DHT22;5595;50.186;8.468;2023-07-29T14:23:22;26.30;99.90
11083;DHT22;5595;50.186;8.468;2023-07-29T14:25:50;26.20;99.90
11083;DHT22;5595;50.186;8.468;2023-07-29T14:28:17;26.10;99.90
11083;DHT22;5595;50.186;8.468;2023-07-29T14:30:44;26.00;99.90
11083;DHT22;5595;50.186;8.468;2023-07-29T14:33:10;26.00;99.90
11083;DHT22;5595;50.186;8.468;2023-07-29T14:35:37;26.00;99.90
11083;DHT22;5595;50.186;8.468;2023-07-29T14:38:04;25.90;99.90
11083;DHT22;5595;50.186;8.468;2023-07-29T14:40:31;25.90;99.90
11083;DHT22;5595;50.186;8.468;2023-07-29T14:42:59;26.00;99.90
11083;DHT22;5595;50.186;8.468;2023-07-29T14:45:26;26.10;99.90
11083;DHT22;5595;50.186;8.468;2023-07-29T14:47:53;26.00;99.90
11083;DHT22;5595;50.186;8.468;2023-07-29T14:50:20;26.00;99.90
11083;DHT22;5595;50.186;8.468;2023-07-29T14:52:46;25.90;99.90
11083;DHT22;5595;50.186;8.468;2023-07-29T14:55:13;25.80;99.90
11083;DHT22;5595;50.186;8.468;2023-07-29T14:57:40;25.80;99.90
11083;DHT22;5595;50.186;8.468;2023-07-29T15:00:10;25.80;99.90
11083;DHT22;5595;50.186;8.468;2023-07-29T15:02:37;25.80;99.90
11083;DHT22;5595;50.186;8.468;2023-07-29T15:05:05;25.90;99.90
11083;DHT22;5595;50.186;8.468;2023-07-29T15:07:32;26.00;99.90
11083;DHT22;5595;50.186;8.468;2023-07-29T15:09:58;26.00;99.90
11083;DHT22;5595;50.186;8.468;2023-07-29T15:12:25;26.00;99.90
11083;DHT22;5595;50.186;8.468;2023-07-29T15:14:52;26.00;99.90
11083;DHT22;5595;50.186;8.468;2023-07-29T15:17:20;26.00;99.90
11083;DHT22;5595;50.186;8.468;2023-07-29T15:19:47;26.10;99.90
11083;DHT22;5595;50.186;8.468;2023-07-29T15:22:17;26.30;99.90
11083;DHT22;5595;50.186;8.468;2023-07-29T15:24:43;26.40;99.90
11083;DHT22;5595;50.186;8.468;2023-07-29T15:27:11;26.50;99.90
11083;DHT22;5595;50.186;8.468;2023-07-29T15:29:38;26.60;99.90
11083;DHT22;5595;50.186;8.468;2023-07-29T15:32:06;26.70;99.90
11083;DHT22;5595;50.186;8.468;2023-07-29T15:34:34;26.70;99.90
11083;DHT22;5595;50.186;8.468;2023-07-29T15:37:02;26.70;99.90
11083;DHT22;5595;50.186;8.468;2023-07-29T15:39:29;26.70;99.40
11083;DHT22;5595;50.186;8.468;2023-07-29T15:41:56;26.60;99.10
11083;DHT22;5595;50.186;8.468;2023-07-29T15:44:23;26.50;98.30
11083;DHT22;5595;50.186;8.468;2023-07-29T15:46:49;26.40;98.70
11083;DHT22;5595;50.186;8.468;2023-07-29T15:49:19;26.20;98.10
11083;DHT22;5595;50.186;8.468;2023-07-29T15:51:48;26.00;98.60